sensor_id;sensor_type;location;lat;lon;timestamp;P1;durP1;ratioP1;P2;durP2;ratioP2
14849;SDS011;7517;48.400;11.770;2023-09-08T00:01:31;2.63;;;2.43;;
14849;SDS011;7517;48.400;11.770;2023-09-08T00:03:58;3.20;;;2.20;;
14849;SDS011;7517;48.400;11.770;2023-09-08T00:06:25;3.27;;;2.77;;
14849;SDS011;7517;48.400;11.770;2023-09-08T00:08:52;2.50;;;2.30;;
14849;SDS011;7517;48.400;11.770;2023-09-08T00:11:20;2.67;;;2.47;;
14849;SDS011;7517;48.400;11.770;2023-09-08T00:13:47;2.50;;;2.30;;
14849;SDS011;7517;48.400;11.770;2023-09-08T00:16:16;2.40;;;2.20;;
14849;SDS011;7517;48.400;11.770;2023-09-08T00:18:44;2.60;;;2.40;;
14849;SDS011;7517;48.400;11.770;2023-09-08T00:21:11;2.70;;;2.50;;
14849;SDS011;7517;48.400;11.770;2023-09-08T00:23:38;2.80;;;2.60;;
14849;SDS011;7517;48.400;11.770;2023-09-08T00:26:05;5.57;;;2.87;;
14849;SDS011;7517;48.400;11.770;2023-09-08T00:28:33;3.30;;;2.60;;
14849;SDS011;7517;48.400;11.770;2023-09-08T00:31:00;3.70;;;2.30;;
14849;SDS011;7517;48.400;11.770;2023-09-08T00:33:31;3.07;;;2.47;;
14849;SDS011;7517;48.400;11.770;2023-09-08T00:35:58;2.53;;;2.33;;
14849;SDS011;7517;48.400;11.770;2023-09-08T00:38:29;3.00;;;2.47;;
14849;SDS011;7517;48.400;11.770;2023-09-08T00:40:56;2.60;;;2.40;;
14849;SDS011;7517;48.400;11.770;2023-09-08T00:43:25;4.30;;;2.43;;
14849;SDS011;7517;48.400;11.770;2023-09-08T00:45:53;2.70;;;2.50;;
14849;SDS011;7517;48.400;11.770;2023-09-08T00:48:23;2.87;;;2.33;;
14849;SDS011;7517;48.400;11.770;2023-09-08T00:50:53;4.03;;;2.20;;
14849;SDS011;7517;48.400;11.770;2023-09-08T00:53:20;2.40;;;2.20;;
14849;SDS011;7517;48.400;11.770;2023-09-08T00:55:48;2.13;;;2.03;;
14849;SDS011;7517;48.400;11.770;2023-09-08T00:58:17;2.83;;;2.60;;
14849;SDS011;7517;48.400;11.770;2023-09-08T01:00:45;2.60;;;2.40;;
14849;SDS011;7517;48.400;11.770;2023-09-08T01:03:13;3.07;;;2.50;;
14849;SDS011;7517;48.400;11.770;2023-09-08T01:05:40;5.03;;;2.67;;
14849;SDS011;7517;48.400;11.770;2023-09-08T01:08:09;2.57;;;2.37;;
14849;SDS011;7517;48.400;11.770;2023-09-08T01:10:36;2.80;;;2.47;;
14849;SDS011;7517;48.400;11.770;2023-09-08T01:13:04;2.93;;;2.53;;
14849;SDS011;7517;48.400;11.770;2023-09-08T01:15:31;2.40;;;2.20;;
14849;SDS011;7517;48.400;11.770;2023-09-08T01:17:58;3.50;;;2.83;;
14849;SDS011;7517;48.400;11.770;2023-09-08T01:20:27;3.33;;;2.90;;
14849;SDS011;7517;48.400;11.770;2023-09-08T01:23:14;2.30;;;2.10;;
14849;SDS011;7517;48.400;11.770;2023-09-08T01:25:50;2.80;;;2.23;;
14849;SDS011;7517;48.400;11.770;2023-09-08T01:28:23;3.67;;;2.67;;
14849;SDS011;7517;48.400;11.770;2023-09-08T01:30:52;4.93;;;2.63;;
14849;SDS011;7517;48.400;11.770;2023-09-08T01:33:21;2.80;;;2.60;;
14849;SDS011;7517;48.400;11.770;2023-09-08T01:35:50;2.80;;;2.40;;
14849;SDS011;7517;48.400;11.770;2023-09-08T01:38:18;2.30;;;2.10;;
14849;SDS011;7517;48.400;11.770;2023-09-08T01:40:47;4.53;;;2.70;;
14849;SDS011;7517;48.400;11.770;2023-09-08T01:43:15;3.20;;;2.67;;
14849;SDS011;7517;48.400;11.770;2023-09-08T01:45:43;3.97;;;2.57;;
14849;SDS011;7517;48.400;11.770;2023-09-08T01:48:10;2.60;;;2.37;;
14849;SDS011;7517;48.400;11.770;2023-09-08T01:50:37;4.17;;;2.30;;
14849;SDS011;7517;48.400;11.770;2023-09-08T01:53:04;2.40;;;2.20;;
14849;SDS011;7517;48.400;11.770;2023-09-08T01:55:31;2.83;;;2.60;;
14849;SDS011;7517;48.400;11.770;2023-09-08T01:57:58;3.77;;;2.47;;
14849;SDS011;7517;48.400;11.770;2023-09-08T02:00:27;2.23;;;2.00;;
14849;SDS011;7517;48.400;11.770;2023-09-08T02:02:54;2.77;;;2.53;;
14849;SDS011;7517;48.400;11.770;2023-09-08T02:05:21;2.20;;;2.10;;
14849;SDS011;7517;48.400;11.770;2023-09-08T02:07:50;2.57;;;2.37;;
14849;SDS011;7517;48.400;11.770;2023-09-08T02:10:17;3.20;;;3.00;;
14849;SDS011;7517;48.400;11.770;2023-09-08T02:12:45;2.93;;;2.70;;
14849;SDS011;7517;48.400;11.770;2023-09-08T02:15:13;3.00;;;2.77;;
14849;SDS011;7517;48.400;11.770;2023-09-08T02:17:42;2.50;;;2.30;;
14849;SDS011;7517;48.400;11.770;2023-09-08T02:20:10;2.90;;;2.57;;
14849;SDS011;7517;48.400;11.770;2023-09-08T02:22:37;2.50;;;2.30;;
14849;SDS011;7517;48.400;11.770;2023-09-08T02:25:05;2.77;;;2.57;;
14849;SDS011;7517;48.400;11.770;2023-09-08T02:27:33;2.77;;;2.57;;
14849;SDS011;7517;48.400;11.770;2023-09-08T02:30:01;2.73;;;2.53;;
14849;SDS011;7517;48.400;11.770;2023-09-08T02:32:28;3.40;;;2.43;;
14849;SDS011;7517;48.400;11.770;2023-09-08T02:34:57;2.53;;;2.37;;
14849;SDS011;7517;48.400;11.770;2023-09-08T02:37:25;2.57;;;2.37;;
14849;SDS011;7517;48.400;11.770;2023-09-08T02:39:52;4.03;;;2.40;;
14849;SDS011;7517;48.400;11.770;2023-09-08T02:42:19;3.13;;;2.83;;
14849;SDS011;7517;48.400;11.770;2023-09-08T02:44:46;2.60;;;2.40;;
14849;SDS011;7517;48.400;11.770;2023-09-08T02:47:13;3.07;;;2.80;;
14849;SDS011;7517;48.400;11.770;2023-09-08T02:49:40;2.50;;;2.30;;
14849;SDS011;7517;48.400;11.770;2023-09-08T02:52:10;3.33;;;3.00;;
14849;SDS011;7517;48.400;11.770;2023-09-08T02:54:37;2.80;;;2.60;;
14849;SDS011;7517;48.400;11.770;2023-09-08T02:57:04;3.07;;;2.87;;
14849;SDS011;7517;48.400;11.770;2023-09-08T02:59:31;3.50;;;3.20;;
14849;SDS011;7517;48.400;11.770;2023-09-08T03:01:59;2.70;;;2.50;;
14849;SDS011;7517;48.400;11.770;2023-09-08T03:04:26;2.87;;;2.50;;
14849;SDS011;7517;48.400;11.770;2023-09-08T03:06:54;4.70;;;2.97;;
14849;SDS011;7517;48.400;11.770;2023-09-08T03:09:23;3.40;;;3.10;;
14849;SDS011;7517;48.400;11.770;2023-09-08T03:11:52;2.70;;;2.50;;
14849;SDS011;7517;48.400;11.770;2023-09-08T03:14:19;3.73;;;2.67;;
14849;SDS011;7517;48.400;11.770;2023-09-08T03:16:46;3.00;;;2.43;;
14849;SDS011;7517;48.400;11.770;2023-09-08T03:19:13;2.90;;;2.70;;
14849;SDS011;7517;48.400;11.770;2023-09-08T03:21:40;4.43;;;3.13;;
14849;SDS011;7517;48.400;11.770;2023-09-08T03:24:08;3.80;;;2.80;;
14849;SDS011;7517;48.400;11.770;2023-09-08T03:26:36;3.00;;;2.70;;
14849;SDS011;7517;48.400;11.770;2023-09-08T03:29:05;3.10;;;2.80;;
14849;SDS011;7517;48.400;11.770;2023-09-08T03:31:32;2.97;;;2.77;;
14849;SDS011;7517;48.400;11.770;2023-09-08T03:33:59;3.07;;;2.87;;
14849;SDS011;7517;48.400;11.770;2023-09-08T03:36:26;2.87;;;2.67;;
14849;SDS011;7517;48.400;11.770;2023-09-08T03:38:55;2.97;;;2.63;;
14849;SDS011;7517;48.400;11.770;2023-09-08T03:41:23;3.30;;;3.00;;
14849;SDS011;7517;48.400;11.770;2023-09-08T03:43:52;3.03;;;2.83;;
14849;SDS011;7517;48.400;11.770;2023-09-08T03:46:19;3.60;;;3.07;;
14849;SDS011;7517;48.400;11.770;2023-09-08T03:48:47;3.30;;;3.00;;
14849;SDS011;7517;48.400;11.770;2023-09-08T03:51:14;3.07;;;2.70;;
14849;SDS011;7517;48.400;11.770;2023-09-08T03:53:41;2.53;;;2.33;;
14849;SDS011;7517;48.400;11.770;2023-09-08T03:56:08;3.40;;;3.10;;
14849;SDS011;7517;48.400;11.770;2023-09-08T03:58:35;4.07;;;3.13;;
14849;SDS011;7517;48.400;11.770;2023-09-08T04:01:04;3.43;;;2.87;;
14849;SDS011;7517;48.400;11.770;2023-09-08T04:03:31;3.23;;;3.03;;
14849;SDS011;7517;48.400;11.770;2023-09-08T04:05:58;3.57;;;2.80;;
14849;SDS011;7517;48.400;11.770;2023-09-08T04:08:25;2.70;;;2.50;;
14849;SDS011;7517;48.400;11.770;2023-09-08T04:10:52;3.23;;;2.93;;
14849;SDS011;7517;48.400;11.770;2023-09-08T04:13:19;5.33;;;2.80;;
14849;SDS011;7517;48.400;11.770;2023-09-08T04:15:46;3.17;;;2.70;;
14849;SDS011;7517;48.400;11.770;2023-09-08T04:18:15;3.90;;;2.63;;
14849;SDS011;7517;48.400;11.770;2023-09-08T04:20:42;2.87;;;2.67;;
14849;SDS011;7517;48.400;11.770;2023-09-08T04:23:10;2.70;;;2.50;;
14849;SDS011;7517;48.400;11.770;2023-09-08T04:25:37;3.00;;;2.80;;
14849;SDS011;7517;48.400;11.770;2023-09-08T04:28:04;2.70;;;2.50;;
14849;SDS011;7517;48.400;11.770;2023-09-08T04:30:32;3.13;;;2.87;;
14849;SDS011;7517;48.400;11.770;2023-09-08T04:32:59;3.93;;;3.00;;
14849;SDS011;7517;48.400;11.770;2023-09-08T04:35:28;3.10;;;2.80;;
14849;SDS011;7517;48.400;11.770;2023-09-08T04:37:55;4.67;;;2.87;;
14849;SDS011;7517;48.400;11.770;2023-09-08T04:40:22;3.23;;;2.93;;
14849;SDS011;7517;48.400;11.770;2023-09-08T04:42:49;3.63;;;2.87;;
14849;SDS011;7517;48.400;11.770;2023-09-08T04:45:16;3.17;;;2.50;;
14849;SDS011;7517;48.400;11.770;2023-09-08T04:47:43;3.10;;;2.70;;
14849;SDS011;7517;48.400;11.770;2023-09-08T04:50:12;3.13;;;2.70;;
14849;SDS011;7517;48.400;11.770;2023-09-08T04:52:41;3.90;;;3.20;;
14849;SDS011;7517;48.400;11.770;2023-09-08T04:55:09;3.63;;;2.60;;
14849;SDS011;7517;48.400;11.770;2023-09-08T04:57:37;3.20;;;2.90;;
14849;SDS011;7517;48.400;11.770;2023-09-08T05:00:05;2.63;;;2.43;;
14849;SDS011;7517;48.400;11.770;2023-09-08T05:02:33;3.03;;;2.77;;
14849;SDS011;7517;48.400;11.770;2023-09-08T05:05:01;3.33;;;2.93;;
14849;SDS011;7517;48.400;11.770;2023-09-08T05:07:29;2.90;;;2.70;;
14849;SDS011;7517;48.400;11.770;2023-09-08T05:09:58;2.53;;;2.37;;
14849;SDS011;7517;48.400;11.770;2023-09-08T05:12:25;2.90;;;2.60;;
14849;SDS011;7517;48.400;11.770;2023-09-08T05:14:52;3.20;;;2.90;;
14849;SDS011;7517;48.400;11.770;2023-09-08T05:17:25;3.00;;;2.80;;
14849;SDS011;7517;48.400;11.770;2023-09-08T05:19:53;3.43;;;3.13;;
14849;SDS011;7517;48.400;11.770;2023-09-08T05:22:20;3.13;;;2.83;;
14849;SDS011;7517;48.400;11.770;2023-09-08T05:24:47;3.43;;;3.00;;
14849;SDS011;7517;48.400;11.770;2023-09-08T05:27:16;3.00;;;2.80;;
14849;SDS011;7517;48.400;11.770;2023-09-08T05:29:45;3.03;;;2.83;;
14849;SDS011;7517;48.400;11.770;2023-09-08T05:32:12;2.90;;;2.70;;
14849;SDS011;7517;48.400;11.770;2023-09-08T05:34:39;3.43;;;2.60;;
14849;SDS011;7517;48.400;11.770;2023-09-08T05:37:06;2.63;;;2.50;;
14849;SDS011;7517;48.400;11.770;2023-09-08T05:39:34;3.47;;;3.17;;
14849;SDS011;7517;48.400;11.770;2023-09-08T05:42:01;3.57;;;3.27;;
14849;SDS011;7517;48.400;11.770;2023-09-08T05:44:30;3.37;;;2.87;;
14849;SDS011;7517;48.400;11.770;2023-09-08T05:46:57;3.37;;;3.17;;
14849;SDS011;7517;48.400;11.770;2023-09-08T05:49:24;2.87;;;2.67;;
14849;SDS011;7517;48.400;11.770;2023-09-08T05:51:51;2.97;;;2.77;;
14849;SDS011;7517;48.400;11.770;2023-09-08T05:54:19;3.03;;;2.73;;
14849;SDS011;7517;48.400;11.770;2023-09-08T05:56:46;4.40;;;3.13;;
14849;SDS011;7517;48.400;11.770;2023-09-08T05:59:13;3.67;;;3.37;;
14849;SDS011;7517;48.400;11.770;2023-09-08T06:01:43;3.67;;;3.37;;
14849;SDS011;7517;48.400;11.770;2023-09-08T06:04:10;4.23;;;3.47;;
14849;SDS011;7517;48.400;11.770;2023-09-08T06:06:37;3.90;;;3.60;;
14849;SDS011;7517;48.400;11.770;2023-09-08T06:09:05;3.73;;;3.43;;
14849;SDS011;7517;48.400;11.770;2023-09-08T06:11:33;3.53;;;3.23;;
14849;SDS011;7517;48.400;11.770;2023-09-08T06:14:01;5.40;;;3.47;;
14849;SDS011;7517;48.400;11.770;2023-09-08T06:16:28;3.97;;;3.67;;
14849;SDS011;7517;48.400;11.770;2023-09-08T06:18:57;4.90;;;3.40;;
14849;SDS011;7517;48.400;11.770;2023-09-08T06:21:24;3.30;;;3.07;;
14849;SDS011;7517;48.400;11.770;2023-09-08T06:23:52;3.53;;;3.23;;
14849;SDS011;7517;48.400;11.770;2023-09-08T06:26:19;3.70;;;3.40;;
14849;SDS011;7517;48.400;11.770;2023-09-08T06:28:46;3.30;;;3.00;;
14849;SDS011;7517;48.400;11.770;2023-09-08T06:31:13;3.50;;;3.20;;
14849;SDS011;7517;48.400;11.770;2023-09-08T06:33:40;3.63;;;3.27;;
14849;SDS011;7517;48.400;11.770;2023-09-08T06:36:09;3.50;;;3.20;;
14849;SDS011;7517;48.400;11.770;2023-09-08T06:38:36;3.50;;;3.20;;
14849;SDS011;7517;48.400;11.770;2023-09-08T06:41:08;3.80;;;3.43;;
14849;SDS011;7517;48.400;11.770;2023-09-08T06:43:36;3.83;;;3.53;;
14849;SDS011;7517;48.400;11.770;2023-09-08T06:46:04;4.17;;;3.87;;
14849;SDS011;7517;48.400;11.770;2023-09-08T06:48:31;4.27;;;3.80;;
14849;SDS011;7517;48.400;11.770;2023-09-08T06:50:58;3.83;;;3.53;;
14849;SDS011;7517;48.400;11.770;2023-09-08T06:53:27;4.20;;;3.80;;
14849;SDS011;7517;48.400;11.770;2023-09-08T06:55:55;4.20;;;3.80;;
14849;SDS011;7517;48.400;11.770;2023-09-08T06:58:23;3.93;;;3.63;;
14849;SDS011;7517;48.400;11.770;2023-09-08T07:00:50;4.17;;;3.87;;
14849;SDS011;7517;48.400;11.770;2023-09-08T07:03:19;5.43;;;4.00;;
14849;SDS011;7517;48.400;11.770;2023-09-08T07:05:47;3.77;;;3.43;;
14849;SDS011;7517;48.400;11.770;2023-09-08T07:08:15;4.67;;;4.23;;
14849;SDS011;7517;48.400;11.770;2023-09-08T07:10:45;4.07;;;3.73;;
14849;SDS011;7517;48.400;11.770;2023-09-08T07:13:18;3.93;;;3.63;;
14849;SDS011;7517;48.400;11.770;2023-09-08T07:15:46;4.33;;;3.87;;
14849;SDS011;7517;48.400;11.770;2023-09-08T07:18:13;4.47;;;4.07;;
14849;SDS011;7517;48.400;11.770;2023-09-08T07:20:40;4.87;;;3.97;;
14849;SDS011;7517;48.400;11.770;2023-09-08T07:23:07;4.30;;;3.90;;
14849;SDS011;7517;48.400;11.770;2023-09-08T07:25:35;3.90;;;3.60;;
14849;SDS011;7517;48.400;11.770;2023-09-08T07:28:04;3.97;;;3.57;;
14849;SDS011;7517;48.400;11.770;2023-09-08T07:30:31;4.20;;;3.77;;
14849;SDS011;7517;48.400;11.770;2023-09-08T07:32:59;4.00;;;3.57;;
14849;SDS011;7517;48.400;11.770;2023-09-08T07:35:26;4.30;;;4.00;;
14849;SDS011;7517;48.400;11.770;2023-09-08T07:37:53;4.07;;;3.67;;
14849;SDS011;7517;48.400;11.770;2023-09-08T07:40:20;4.00;;;3.70;;
14849;SDS011;7517;48.400;11.770;2023-09-08T07:42:48;4.20;;;3.90;;
14849;SDS011;7517;48.400;11.770;2023-09-08T07:45:16;4.80;;;4.40;;
14849;SDS011;7517;48.400;11.770;2023-09-08T07:47:43;3.83;;;3.53;;
14849;SDS011;7517;48.400;11.770;2023-09-08T07:50:18;3.47;;;3.17;;
14849;SDS011;7517;48.400;11.770;2023-09-08T07:52:47;3.70;;;3.40;;
14849;SDS011;7517;48.400;11.770;2023-09-08T07:55:16;5.30;;;4.27;;
14849;SDS011;7517;48.400;11.770;2023-09-08T07:57:44;4.63;;;4.07;;
14849;SDS011;7517;48.400;11.770;2023-09-08T08:00:12;4.73;;;3.97;;
14849;SDS011;7517;48.400;11.770;2023-09-08T08:02:44;4.07;;;3.67;;
14849;SDS011;7517;48.400;11.770;2023-09-08T08:05:13;4.27;;;3.97;;
14849;SDS011;7517;48.400;11.770;2023-09-08T08:07:41;4.70;;;4.13;;
14849;SDS011;7517;48.400;11.770;2023-09-08T08:10:10;3.97;;;3.60;;
14849;SDS011;7517;48.400;11.770;2023-09-08T08:12:39;4.30;;;3.90;;
14849;SDS011;7517;48.400;11.770;2023-09-08T08:15:10;4.97;;;4.03;;
14849;SDS011;7517;48.400;11.770;2023-09-08T08:17:38;4.43;;;4.03;;
14849;SDS011;7517;48.400;11.770;2023-09-08T08:20:09;4.40;;;4.00;;
14849;SDS011;7517;48.400;11.770;2023-09-08T08:22:42;4.00;;;3.50;;
14849;SDS011;7517;48.400;11.770;2023-09-08T08:25:11;4.10;;;3.70;;
14849;SDS011;7517;48.400;11.770;2023-09-08T08:27:39;4.37;;;4.07;;
14849;SDS011;7517;48.400;11.770;2023-09-08T08:30:07;5.13;;;4.10;;
14849;SDS011;7517;48.400;11.770;2023-09-08T08:32:36;4.30;;;4.00;;
14849;SDS011;7517;48.400;11.770;2023-09-08T08:35:04;4.97;;;4.30;;
14849;SDS011;7517;48.400;11.770;2023-09-08T08:37:33;4.53;;;4.13;;
14849;SDS011;7517;48.400;11.770;2023-09-08T08:40:00;4.80;;;4.40;;
14849;SDS011;7517;48.400;11.770;2023-09-08T08:42:30;4.63;;;4.23;;
14849;SDS011;7517;48.400;11.770;2023-09-08T08:44:58;4.50;;;4.10;;
14849;SDS011;7517;48.400;11.770;2023-09-08T08:47:28;4.57;;;4.10;;
14849;SDS011;7517;48.400;11.770;2023-09-08T08:49:56;4.50;;;4.10;;
14849;SDS011;7517;48.400;11.770;2023-09-08T08:52:24;4.00;;;3.70;;
14849;SDS011;7517;48.400;11.770;2023-09-08T08:54:54;4.10;;;3.73;;
14849;SDS011;7517;48.400;11.770;2023-09-08T08:57:22;4.60;;;4.20;;
14849;SDS011;7517;48.400;11.770;2023-09-08T08:59:52;5.03;;;4.00;;
14849;SDS011;7517;48.400;11.770;2023-09-08T09:02:20;3.60;;;3.40;;
14849;SDS011;7517;48.400;11.770;2023-09-08T09:04:50;4.17;;;3.50;;
14849;SDS011;7517;48.400;11.770;2023-09-08T09:07:18;4.63;;;4.07;;
14849;SDS011;7517;48.400;11.770;2023-09-08T09:09:47;5.13;;;4.10;;
14849;SDS011;7517;48.400;11.770;2023-09-08T09:12:16;5.43;;;4.40;;
14849;SDS011;7517;48.400;11.770;2023-09-08T09:14:46;5.40;;;4.83;;
14849;SDS011;7517;48.400;11.770;2023-09-08T09:17:13;4.60;;;4.20;;
14849;SDS011;7517;48.400;11.770;2023-09-08T09:19:41;4.87;;;4.07;;
14849;SDS011;7517;48.400;11.770;2023-09-08T09:22:08;4.43;;;4.03;;
14849;SDS011;7517;48.400;11.770;2023-09-08T09:24:36;5.33;;;4.10;;
14849;SDS011;7517;48.400;11.770;2023-09-08T09:27:06;4.37;;;3.97;;
14849;SDS011;7517;48.400;11.770;2023-09-08T09:29:40;6.03;;;4.43;;
14849;SDS011;7517;48.400;11.770;2023-09-08T09:32:15;4.87;;;4.27;;
14849;SDS011;7517;48.400;11.770;2023-09-08T09:34:54;4.40;;;4.00;;
14849;SDS011;7517;48.400;11.770;2023-09-08T09:37:26;5.03;;;3.90;;
14849;SDS011;7517;48.400;11.770;2023-09-08T09:39:54;4.10;;;3.70;;
14849;SDS011;7517;48.400;11.770;2023-09-08T09:42:21;5.13;;;3.90;;
14849;SDS011;7517;48.400;11.770;2023-09-08T09:44:50;4.73;;;4.33;;
14849;SDS011;7517;48.400;11.770;2023-09-08T09:47:18;5.85;;;4.18;;
14849;SDS011;7517;48.400;11.770;2023-09-08T09:49:47;4.70;;;4.30;;
14849;SDS011;7517;48.400;11.770;2023-09-08T09:52:20;5.20;;;4.70;;
14849;SDS011;7517;48.400;11.770;2023-09-08T09:54:51;5.68;;;4.90;;
14849;SDS011;7517;48.400;11.770;2023-09-08T09:57:21;4.60;;;4.20;;
14849;SDS011;7517;48.400;11.770;2023-09-08T09:59:51;4.75;;;4.45;;
14849;SDS011;7517;48.400;11.770;2023-09-08T10:02:21;4.35;;;4.05;;
14849;SDS011;7517;48.400;11.770;2023-09-08T10:04:53;5.10;;;4.70;;
14849;SDS011;7517;48.400;11.770;2023-09-08T10:07:20;6.57;;;4.43;;
14849;SDS011;7517;48.400;11.770;2023-09-08T10:09:50;4.72;;;4.05;;
14849;SDS011;7517;48.400;11.770;2023-09-08T10:12:17;4.50;;;4.13;;
14849;SDS011;7517;48.400;11.770;2023-09-08T10:14:44;5.15;;;4.75;;
14849;SDS011;7517;48.400;11.770;2023-09-08T10:17:19;4.30;;;4.00;;
14849;SDS011;7517;48.400;11.770;2023-09-08T10:19:57;4.60;;;4.20;;
14849;SDS011;7517;48.400;11.770;2023-09-08T10:22:33;5.10;;;4.40;;
14849;SDS011;7517;48.400;11.770;2023-09-08T10:25:05;5.25;;;4.45;;
14849;SDS011;7517;48.400;11.770;2023-09-08T10:27:34;5.28;;;4.78;;
14849;SDS011;7517;48.400;11.770;2023-09-08T10:30:03;5.00;;;4.60;;
14849;SDS011;7517;48.400;11.770;2023-09-08T10:32:34;6.22;;;4.75;;
14849;SDS011;7517;48.400;11.770;2023-09-08T10:35:03;4.25;;;3.88;;
14849;SDS011;7517;48.400;11.770;2023-09-08T10:37:31;5.00;;;4.35;;
14849;SDS011;7517;48.400;11.770;2023-09-08T10:43:08;4.95;;;4.55;;
14849;SDS011;7517;48.400;11.770;2023-09-08T10:45:36;5.78;;;5.13;;
14849;SDS011;7517;48.400;11.770;2023-09-08T10:48:06;4.90;;;4.15;;
14849;SDS011;7517;48.400;11.770;2023-09-08T10:50:35;4.32;;;4.03;;
14849;SDS011;7517;48.400;11.770;2023-09-08T10:53:06;4.30;;;3.90;;
14849;SDS011;7517;48.400;11.770;2023-09-08T10:55:39;4.40;;;4.10;;
14849;SDS011;7517;48.400;11.770;2023-09-08T10:58:16;4.88;;;3.97;;
14849;SDS011;7517;48.400;11.770;2023-09-08T11:00:46;4.53;;;4.15;;
14849;SDS011;7517;48.400;11.770;2023-09-08T11:03:27;4.25;;;3.58;;
14849;SDS011;7517;48.400;11.770;2023-09-08T11:06:15;5.60;;;4.05;;
14849;SDS011;7517;48.400;11.770;2023-09-08T11:08:44;4.50;;;4.10;;
14849;SDS011;7517;48.400;11.770;2023-09-08T11:11:15;4.93;;;4.13;;
14849;SDS011;7517;48.400;11.770;2023-09-08T11:13:43;6.75;;;4.50;;
14849;SDS011;7517;48.400;11.770;2023-09-08T11:16:11;4.60;;;4.20;;
14849;SDS011;7517;48.400;11.770;2023-09-08T11:18:42;4.75;;;4.07;;
14849;SDS011;7517;48.400;11.770;2023-09-08T11:21:09;4.28;;;3.88;;
14849;SDS011;7517;48.400;11.770;2023-09-08T11:23:37;4.25;;;3.83;;
14849;SDS011;7517;48.400;11.770;2023-09-08T11:26:06;4.32;;;3.92;;
14849;SDS011;7517;48.400;11.770;2023-09-08T11:28:34;3.72;;;3.42;;
14849;SDS011;7517;48.400;11.770;2023-09-08T11:31:01;4.53;;;4.13;;
14849;SDS011;7517;48.400;11.770;2023-09-08T11:33:32;4.32;;;3.97;;
14849;SDS011;7517;48.400;11.770;2023-09-08T11:36:10;4.28;;;3.97;;
14849;SDS011;7517;48.400;11.770;2023-09-08T11:38:41;3.70;;;3.35;;
14849;SDS011;7517;48.400;11.770;2023-09-08T11:41:10;3.95;;;3.15;;
14849;SDS011;7517;48.400;11.770;2023-09-08T11:43:37;3.83;;;3.53;;
14849;SDS011;7517;48.400;11.770;2023-09-08T11:46:05;5.07;;;4.20;;
14849;SDS011;7517;48.400;11.770;2023-09-08T11:48:32;3.92;;;3.58;;
14849;SDS011;7517;48.400;11.770;2023-09-08T11:51:00;4.22;;;3.55;;
14849;SDS011;7517;48.400;11.770;2023-09-08T11:53:28;4.20;;;3.90;;
14849;SDS011;7517;48.400;11.770;2023-09-08T11:55:58;3.67;;;3.38;;
14849;SDS011;7517;48.400;11.770;2023-09-08T11:58:26;3.92;;;3.35;;
14849;SDS011;7517;48.400;11.770;2023-09-08T12:00:53;4.03;;;3.72;;
14849;SDS011;7517;48.400;11.770;2023-09-08T12:03:21;3.70;;;3.50;;
14849;SDS011;7517;48.400;11.770;2023-09-08T12:05:50;4.45;;;3.85;;
14849;SDS011;7517;48.400;11.770;2023-09-08T12:08:20;4.18;;;3.83;;
14849;SDS011;7517;48.400;11.770;2023-09-08T12:10:53;3.90;;;3.60;;
14849;SDS011;7517;48.400;11.770;2023-09-08T12:13:21;3.92;;;3.63;;
14849;SDS011;7517;48.400;11.770;2023-09-08T12:15:49;4.93;;;3.30;;
14849;SDS011;7517;48.400;11.770;2023-09-08T12:18:18;4.18;;;3.83;;
14849;SDS011;7517;48.400;11.770;2023-09-08T12:20:45;3.53;;;3.22;;
14849;SDS011;7517;48.400;11.770;2023-09-08T12:23:16;3.38;;;3.17;;
14849;SDS011;7517;48.400;11.770;2023-09-08T12:25:45;3.80;;;3.50;;
14849;SDS011;7517;48.400;11.770;2023-09-08T12:28:16;4.30;;;3.80;;
14849;SDS011;7517;48.400;11.770;2023-09-08T12:30:45;3.60;;;3.40;;
14849;SDS011;7517;48.400;11.770;2023-09-08T12:33:13;3.72;;;3.30;;
14849;SDS011;7517;48.400;11.770;2023-09-08T12:35:42;4.55;;;4.10;;
14849;SDS011;7517;48.400;11.770;2023-09-08T12:38:10;3.60;;;3.30;;
14849;SDS011;7517;48.400;11.770;2023-09-08T12:40:39;4.28;;;2.97;;
14849;SDS011;7517;48.400;11.770;2023-09-08T12:43:06;4.88;;;3.45;;
14849;SDS011;7517;48.400;11.770;2023-09-08T12:45:35;4.03;;;3.65;;
14849;SDS011;7517;48.400;11.770;2023-09-08T12:48:03;3.63;;;3.33;;
14849;SDS011;7517;48.400;11.770;2023-09-08T12:50:31;4.18;;;3.80;;
14849;SDS011;7517;48.400;11.770;2023-09-08T12:52:59;3.78;;;3.50;;
14849;SDS011;7517;48.400;11.770;2023-09-08T12:55:26;3.88;;;3.58;;
14849;SDS011;7517;48.400;11.770;2023-09-08T12:57:54;4.90;;;3.55;;
14849;SDS011;7517;48.400;11.770;2023-09-08T13:00:22;3.55;;;3.22;;
14849;SDS011;7517;48.400;11.770;2023-09-08T13:02:52;3.42;;;3.13;;
14849;SDS011;7517;48.400;11.770;2023-09-08T13:05:19;3.95;;;3.65;;
14849;SDS011;7517;48.400;11.770;2023-09-08T13:07:46;4.05;;;3.60;;
14849;SDS011;7517;48.400;11.770;2023-09-08T13:10:13;3.83;;;3.53;;
14849;SDS011;7517;48.400;11.770;2023-09-08T13:12:41;3.90;;;3.60;;
14849;SDS011;7517;48.400;11.770;2023-09-08T13:15:08;3.53;;;3.33;;
14849;SDS011;7517;48.400;11.770;2023-09-08T13:17:36;3.80;;;3.50;;
14849;SDS011;7517;48.400;11.770;2023-09-08T13:20:06;3.65;;;3.35;;
14849;SDS011;7517;48.400;11.770;2023-09-08T13:22:35;5.22;;;3.60;;
14849;SDS011;7517;48.400;11.770;2023-09-08T13:25:03;3.65;;;3.40;;
14849;SDS011;7517;48.400;11.770;2023-09-08T13:27:31;3.97;;;3.58;;
14849;SDS011;7517;48.400;11.770;2023-09-08T13:30:07;3.70;;;3.40;;
14849;SDS011;7517;48.400;11.770;2023-09-08T13:32:36;5.63;;;4.10;;
14849;SDS011;7517;48.400;11.770;2023-09-08T13:35:04;3.72;;;3.33;;
14849;SDS011;7517;48.400;11.770;2023-09-08T13:37:33;3.30;;;3.00;;
14849;SDS011;7517;48.400;11.770;2023-09-08T13:40:03;3.83;;;3.50;;
14849;SDS011;7517;48.400;11.770;2023-09-08T13:42:31;4.28;;;3.97;;
14849;SDS011;7517;48.400;11.770;2023-09-08T13:44:59;3.85;;;3.55;;
14849;SDS011;7517;48.400;11.770;2023-09-08T13:47:26;3.78;;;3.58;;
14849;SDS011;7517;48.400;11.770;2023-09-08T13:49:53;3.22;;;3.03;;
14849;SDS011;7517;48.400;11.770;2023-09-08T13:52:22;4.03;;;3.50;;
14849;SDS011;7517;48.400;11.770;2023-09-08T13:54:50;3.75;;;3.45;;
14849;SDS011;7517;48.400;11.770;2023-09-08T13:57:17;3.28;;;3.08;;
14849;SDS011;7517;48.400;11.770;2023-09-08T13:59:47;3.58;;;3.35;;
14849;SDS011;7517;48.400;11.770;2023-09-08T14:02:15;3.70;;;3.50;;
14849;SDS011;7517;48.400;11.770;2023-09-08T14:04:42;3.42;;;3.22;;
14849;SDS011;7517;48.400;11.770;2023-09-08T14:07:09;3.17;;;2.97;;
14849;SDS011;7517;48.400;11.770;2023-09-08T14:09:38;3.38;;;3.17;;
14849;SDS011;7517;48.400;11.770;2023-09-08T14:12:05;3.20;;;3.00;;
14849;SDS011;7517;48.400;11.770;2023-09-08T14:14:33;3.42;;;3.22;;
14849;SDS011;7517;48.400;11.770;2023-09-08T14:17:00;3.58;;;3.28;;
14849;SDS011;7517;48.400;11.770;2023-09-08T14:19:28;3.83;;;3.53;;
14849;SDS011;7517;48.400;11.770;2023-09-08T14:21:55;3.50;;;3.30;;
14849;SDS011;7517;48.400;11.770;2023-09-08T14:24:22;3.30;;;3.10;;
14849;SDS011;7517;48.400;11.770;2023-09-08T14:26:52;3.55;;;3.35;;
14849;SDS011;7517;48.400;11.770;2023-09-08T14:29:21;3.88;;;3.30;;
14849;SDS011;7517;48.400;11.770;2023-09-08T14:31:48;3.63;;;3.20;;
14849;SDS011;7517;48.400;11.770;2023-09-08T14:34:15;4.00;;;3.60;;
14849;SDS011;7517;48.400;11.770;2023-09-08T14:36:43;4.13;;;3.78;;
14849;SDS011;7517;48.400;11.770;2023-09-08T14:39:10;3.60;;;3.38;;
14849;SDS011;7517;48.400;11.770;2023-09-08T14:41:41;3.97;;;3.60;;
14849;SDS011;7517;48.400;11.770;2023-09-08T14:44:10;4.25;;;3.90;;
14849;SDS011;7517;48.400;11.770;2023-09-08T14:46:37;4.18;;;3.80;;
14849;SDS011;7517;48.400;11.770;2023-09-08T14:49:04;3.80;;;3.50;;
14849;SDS011;7517;48.400;11.770;2023-09-08T14:51:31;4.10;;;3.70;;
14849;SDS011;7517;48.400;11.770;2023-09-08T14:53:58;3.80;;;3.60;;
14849;SDS011;7517;48.400;11.770;2023-09-08T14:56:25;4.10;;;3.80;;
14849;SDS011;7517;48.400;11.770;2023-09-08T14:58:54;4.40;;;4.00;;